sensor_id;sensor_type;location;lat;lon;timestamp;P1;durP1;ratioP1;P2;durP2;ratioP2
49820;SDS011;36893;52.520;13.450;2024-01-30T00:09:57;4.87;;;1.67;;
49820;SDS011;36893;52.520;13.450;2024-01-30T00:19:58;2.33;;;1.30;;
49820;SDS011;36893;52.520;13.450;2024-01-30T00:29:59;4.57;;;1.77;;
49820;SDS011;36893;52.520;13.450;2024-01-30T00:39:59;3.93;;;1.40;;
49820;SDS011;36893;52.520;13.450;2024-01-30T00:50:00;4.50;;;1.57;;
49820;SDS011;36893;52.520;13.450;2024-01-30T01:00:01;4.30;;;1.40;;
49820;SDS011;36893;52.520;13.450;2024-01-30T01:10:03;4.22;;;1.63;;
49820;SDS011;36893;52.520;13.450;2024-01-30T01:20:04;3.50;;;1.38;;
49820;SDS011;36893;52.520;13.450;2024-01-30T01:30:07;3.40;;;1.40;;
49820;SDS011;36893;52.520;13.450;2024-01-30T01:40:10;3.80;;;1.33;;
49820;SDS011;36893;52.520;13.450;2024-01-30T01:50:11;3.03;;;1.40;;
49820;SDS011;36893;52.520;13.450;2024-01-30T02:00:13;3.10;;;1.63;;
49820;SDS011;36893;52.520;13.450;2024-01-30T02:10:15;4.30;;;1.33;;
49820;SDS011;36893;52.520;13.450;2024-01-30T02:20:16;4.80;;;1.57;;
49820;SDS011;36893;52.520;13.450;2024-01-30T02:30:16;2.37;;;0.90;;
49820;SDS011;36893;52.520;13.450;2024-01-30T02:40:17;3.97;;;1.40;;
49820;SDS011;36893;52.520;13.450;2024-01-30T02:50:18;3.73;;;1.63;;
49820;SDS011;36893;52.520;13.450;2024-01-30T03:00:19;5.73;;;1.60;;
49820;SDS011;36893;52.520;13.450;2024-01-30T03:10:20;4.07;;;1.35;;
49820;SDS011;36893;52.520;13.450;2024-01-30T03:20:20;3.87;;;1.63;;
49820;SDS011;36893;52.520;13.450;2024-01-30T03:30:21;4.23;;;1.37;;
49820;SDS011;36893;52.520;13.450;2024-01-30T03:40:22;4.35;;;1.30;;
49820;SDS011;36893;52.520;13.450;2024-01-30T03:50:23;3.47;;;1.40;;
49820;SDS011;36893;52.520;13.450;2024-01-30T04:00:23;2.73;;;1.27;;
49820;SDS011;36893;52.520;13.450;2024-01-30T04:10:24;1.83;;;1.10;;
49820;SDS011;36893;52.520;13.450;2024-01-30T04:20:24;2.80;;;1.60;;
49820;SDS011;36893;52.520;13.450;2024-01-30T04:30:25;3.67;;;1.42;;
49820;SDS011;36893;52.520;13.450;2024-01-30T04:40:26;2.83;;;1.17;;
49820;SDS011;36893;52.520;13.450;2024-01-30T04:50:27;4.83;;;1.50;;
49820;SDS011;36893;52.520;13.450;2024-01-30T05:00:27;1.83;;;1.20;;
49820;SDS011;36893;52.520;13.450;2024-01-30T05:10:28;1.77;;;1.10;;
49820;SDS011;36893;52.520;13.450;2024-01-30T05:20:29;3.40;;;1.25;;
49820;SDS011;36893;52.520;13.450;2024-01-30T05:30:30;7.35;;;1.20;;
49820;SDS011;36893;52.520;13.450;2024-01-30T05:40:31;3.83;;;1.40;;
49820;SDS011;36893;52.520;13.450;2024-01-30T05:50:31;4.23;;;1.73;;
49820;SDS011;36893;52.520;13.450;2024-01-30T06:00:32;3.10;;;1.40;;
49820;SDS011;36893;52.520;13.450;2024-01-30T06:10:32;2.60;;;1.20;;
49820;SDS011;36893;52.520;13.450;2024-01-30T06:20:33;7.50;;;1.37;;
49820;SDS011;36893;52.520;13.450;2024-01-30T06:30:34;3.35;;;1.60;;
49820;SDS011;36893;52.520;13.450;2024-01-30T06:40:34;3.43;;;1.13;;
49820;SDS011;36893;52.520;13.450;2024-01-30T06:50:35;2.42;;;1.27;;
49820;SDS011;36893;52.520;13.450;2024-01-30T07:00:36;4.40;;;1.43;;
49820;SDS011;36893;52.520;13.450;2024-01-30T07:10:37;2.38;;;1.02;;
49820;SDS011;36893;52.520;13.450;2024-01-30T07:20:38;2.07;;;1.30;;
49820;SDS011;36893;52.520;13.450;2024-01-30T07:30:45;4.03;;;1.35;;
49820;SDS011;36893;52.520;13.450;2024-01-30T07:40:47;2.42;;;1.23;;
49820;SDS011;36893;52.520;13.450;2024-01-30T07:50:48;3.43;;;1.43;;
49820;SDS011;36893;52.520;13.450;2024-01-30T08:00:48;8.03;;;1.90;;
49820;SDS011;36893;52.520;13.450;2024-01-30T08:10:49;3.30;;;1.38;;
49820;SDS011;36893;52.520;13.450;2024-01-30T08:20:50;3.00;;;1.37;;
49820;SDS011;36893;52.520;13.450;2024-01-30T08:30:50;2.63;;;1.27;;
49820;SDS011;36893;52.520;13.450;2024-01-30T08:40:51;9.63;;;1.77;;
49820;SDS011;36893;52.520;13.450;2024-01-30T08:50:52;4.43;;;1.37;;
49820;SDS011;36893;52.520;13.450;2024-01-30T09:00:52;13.50;;;1.90;;
49820;SDS011;36893;52.520;13.450;2024-01-30T09:10:53;3.63;;;1.80;;
49820;SDS011;36893;52.520;13.450;2024-01-30T09:20:54;4.15;;;1.95;;
49820;SDS011;36893;52.520;13.450;2024-01-30T09:30:55;9.50;;;2.00;;
49820;SDS011;36893;52.520;13.450;2024-01-30T09:40:56;3.87;;;1.40;;
49820;SDS011;36893;52.520;13.450;2024-01-30T09:51:02;5.18;;;1.80;;
49820;SDS011;36893;52.520;13.450;2024-01-30T10:01:03;11.00;;;2.33;;
49820;SDS011;36893;52.520;13.450;2024-01-30T10:11:04;3.50;;;1.50;;
49820;SDS011;36893;52.520;13.450;2024-01-30T10:21:04;7.23;;;2.07;;
49820;SDS011;36893;52.520;13.450;2024-01-30T10:31:05;4.80;;;1.73;;
49820;SDS011;36893;52.520;13.450;2024-01-30T10:41:06;2.33;;;1.43;;
49820;SDS011;36893;52.520;13.450;2024-01-30T10:51:08;7.28;;;2.00;;
49820;SDS011;36893;52.520;13.450;2024-01-30T11:01:10;9.45;;;2.33;;
49820;SDS011;36893;52.520;13.450;2024-01-30T11:11:13;19.70;;;3.00;;
49820;SDS011;36893;52.520;13.450;2024-01-30T11:21:16;13.07;;;2.78;;
49820;SDS011;36893;52.520;13.450;2024-01-30T11:31:18;8.23;;;2.70;;
49820;SDS011;36893;52.520;13.450;2024-01-30T11:41:19;9.10;;;2.10;;
49820;SDS011;36893;52.520;13.450;2024-01-30T11:51:20;6.05;;;1.85;;
49820;SDS011;36893;52.520;13.450;2024-01-30T12:01:20;9.07;;;2.40;;
49820;SDS011;36893;52.520;13.450;2024-01-30T12:11:21;3.33;;;1.73;;
49820;SDS011;36893;52.520;13.450;2024-01-30T12:21:22;5.87;;;2.10;;
49820;SDS011;36893;52.520;13.450;2024-01-30T12:31:27;4.15;;;1.60;;
49820;SDS011;36893;52.520;13.450;2024-01-30T12:41:29;5.55;;;2.05;;
49820;SDS011;36893;52.520;13.450;2024-01-30T12:51:30;4.50;;;1.87;;
49820;SDS011;36893;52.520;13.450;2024-01-30T13:01:30;3.37;;;1.87;;
49820;SDS011;36893;52.520;13.450;2024-01-30T13:11:31;9.10;;;2.40;;
49820;SDS011;36893;52.520;13.450;2024-01-30T13:21:31;8.70;;;2.20;;
49820;SDS011;36893;52.520;13.450;2024-01-30T13:31:32;9.03;;;2.27;;
49820;SDS011;36893;52.520;13.450;2024-01-30T13:41:33;7.37;;;2.00;;
49820;SDS011;36893;52.520;13.450;2024-01-30T13:51:33;9.07;;;2.40;;
49820;SDS011;36893;52.520;13.450;2024-01-30T14:01:34;10.30;;;2.03;;
49820;SDS011;36893;52.520;13.450;2024-01-30T14:11:35;6.23;;;2.30;;
49820;SDS011;36893;52.520;13.450;2024-01-30T14:21:35;6.63;;;1.80;;
49820;SDS011;36893;52.520;13.450;2024-01-30T14:31:37;4.63;;;1.90;;
49820;SDS011;36893;52.520;13.450;2024-01-30T14:41:37;7.27;;;2.33;;
49820;SDS011;36893;52.520;13.450;2024-01-30T14:51:38;6.73;;;1.93;;
49820;SDS011;36893;52.520;13.450;2024-01-30T15:01:39;8.47;;;2.10;;
49820;SDS011;36893;52.520;13.450;2024-01-30T15:11:40;5.23;;;2.00;;
49820;SDS011;36893;52.520;13.450;2024-01-30T15:21:50;4.18;;;2.22;;
49820;SDS011;36893;52.520;13.450;2024-01-30T15:31:50;7.07;;;2.07;;
49820;SDS011;36893;52.520;13.450;2024-01-30T15:41:51;4.73;;;1.97;;
49820;SDS011;36893;52.520;13.450;2024-01-30T15:51:52;6.18;;;2.30;;
49820;SDS011;36893;52.520;13.450;2024-01-30T16:01:53;8.00;;;2.10;;
49820;SDS011;36893;52.520;13.450;2024-01-30T16:11:54;6.53;;;2.10;;
49820;SDS011;36893;52.520;13.450;2024-01-30T16:21:54;5.37;;;2.03;;
49820;SDS011;36893;52.520;13.450;2024-01-30T16:31:55;7.70;;;2.00;;
49820;SDS011;36893;52.520;13.450;2024-01-30T16:41:56;6.28;;;2.38;;
49820;SDS011;36893;52.520;13.450;2024-01-30T16:51:57;4.03;;;1.80;;
49820;SDS011;36893;52.520;13.450;2024-01-30T17:01:58;6.00;;;2.20;;
49820;SDS011;36893;52.520;13.450;2024-01-30T17:11:59;6.23;;;2.37;;
49820;SDS011;36893;52.520;13.450;2024-01-30T17:22:03;4.70;;;1.80;;
49820;SDS011;36893;52.520;13.450;2024-01-30T17:32:04;4.05;;;1.65;;
49820;SDS011;36893;52.520;13.450;2024-01-30T17:42:05;5.85;;;2.28;;
49820;SDS011;36893;52.520;13.450;2024-01-30T17:52:06;5.53;;;1.97;;
49820;SDS011;36893;52.520;13.450;2024-01-30T18:02:07;3.88;;;1.75;;
49820;SDS011;36893;52.520;13.450;2024-01-30T18:12:08;6.20;;;1.90;;
49820;SDS011;36893;52.520;13.450;2024-01-30T18:22:10;5.75;;;2.35;;
49820;SDS011;36893;52.520;13.450;2024-01-30T18:32:11;4.20;;;1.93;;
49820;SDS011;36893;52.520;13.450;2024-01-30T18:42:11;5.03;;;2.17;;
49820;SDS011;36893;52.520;13.450;2024-01-30T18:52:12;6.43;;;2.57;;
49820;SDS011;36893;52.520;13.450;2024-01-30T19:02:13;4.37;;;2.13;;
49820;SDS011;36893;52.520;13.450;2024-01-30T19:12:13;5.70;;;1.90;;
49820;SDS011;36893;52.520;13.450;2024-01-30T19:22:14;6.55;;;2.53;;
49820;SDS011;36893;52.520;13.450;2024-01-30T19:32:15;5.90;;;2.07;;
49820;SDS011;36893;52.520;13.450;2024-01-30T19:42:15;5.87;;;2.87;;
49820;SDS011;36893;52.520;13.450;2024-01-30T19:52:16;5.33;;;2.53;;
49820;SDS011;36893;52.520;13.450;2024-01-30T20:02:17;7.47;;;2.35;;
49820;SDS011;36893;52.520;13.450;2024-01-30T20:12:19;6.40;;;1.63;;
49820;SDS011;36893;52.520;13.450;2024-01-30T20:22:20;6.27;;;1.97;;
49820;SDS011;36893;52.520;13.450;2024-01-30T20:32:21;4.73;;;2.60;;
49820;SDS011;36893;52.520;13.450;2024-01-30T20:42:21;8.23;;;2.30;;
49820;SDS011;36893;52.520;13.450;2024-01-30T20:52:22;8.47;;;2.37;;
49820;SDS011;36893;52.520;13.450;2024-01-30T21:02:23;6.93;;;2.47;;
49820;SDS011;36893;52.520;13.450;2024-01-30T21:12:23;8.53;;;2.63;;
49820;SDS011;36893;52.520;13.450;2024-01-30T21:22:24;7.65;;;2.40;;
49820;SDS011;36893;52.520;13.450;2024-01-30T21:32:25;8.20;;;2.50;;
49820;SDS011;36893;52.520;13.450;2024-01-30T21:42:25;8.67;;;3.33;;
49820;SDS011;36893;52.520;13.450;2024-01-30T21:52:26;14.70;;;4.07;;
49820;SDS011;36893;52.520;13.450;2024-01-30T22:02:27;10.93;;;2.87;;
49820;SDS011;36893;52.520;13.450;2024-01-30T22:12:27;5.53;;;2.57;;
49820;SDS011;36893;52.520;13.450;2024-01-30T22:22:28;10.60;;;2.77;;
49820;SDS011;36893;52.520;13.450;2024-01-30T22:32:28;7.60;;;2.50;;
49820;SDS011;36893;52.520;13.450;2024-01-30T22:42:29;11.02;;;2.80;;
49820;SDS011;36893;52.520;13.450;2024-01-30T22:52:30;7.30;;;2.30;;
49820;SDS011;36893;52.520;13.450;2024-01-30T23:02:31;5.77;;;2.50;;
49820;SDS011;36893;52.520;13.450;2024-01-30T23:12:31;6.07;;;2.70;;
49820;SDS011;36893;52.520;13.450;2024-01-30T23:22:32;7.33;;;2.20;;
49820;SDS011;36893;52.520;13.450;2024-01-30T23:32:33;7.72;;;2.08;;
49820;SDS011;36893;52.520;13.450;2024-01-30T23:42:33;7.20;;;2.27;;
49820;SDS011;36893;52.520;13.450;2024-01-30T23:52:39;7.20;;;2.43;;
